sensor_id;sensor_type;location;lat;lon;timestamp;temperature;humidity
27848;DHT22;15212;48.830;8.730;2023-02-18T00:01:53;10.40;99.90
27848;DHT22;15212;48.830;8.730;2023-02-18T00:04:21;10.40;99.90
27848;DHT22;15212;48.830;8.730;2023-02-18T00:06:50;10.40;99.90
27848;DHT22;15212;48.830;8.730;2023-02-18T00:09:18;10.40;99.90
27848;DHT22;15212;48.830;8.730;2023-02-18T00:11:47;10.40;99.90
27848;DHT22;15212;48.830;8.730;2023-02-18T00:14:16;10.40;99.90
27848;DHT22;15212;48.830;8.730;2023-02-18T00:16:45;10.30;99.90
27848;DHT22;15212;48.830;8.730;2023-02-18T00:19:16;10.40;99.90
27848;DHT22;15212;48.830;8.730;2023-02-18T00:21:47;10.40;99.90
27848;DHT22;15212;48.830;8.730;2023-02-18T00:24:16;10.40;99.90
27848;DHT22;15212;48.830;8.730;2023-02-18T00:26:45;10.40;99.90
27848;DHT22;15212;48.830;8.730;2023-02-18T00:29:15;10.40;99.90
27848;DHT22;15212;48.830;8.730;2023-02-18T00:31:43;10.40;99.90
27848;DHT22;15212;48.830;8.730;2023-02-18T00:34:12;10.40;99.90
27848;DHT22;15212;48.830;8.730;2023-02-18T00:36:41;10.40;99.90
27848;DHT22;15212;48.830;8.730;2023-02-18T00:39:10;10.30;99.90
27848;DHT22;15212;48.830;8.730;2023-02-18T00:41:39;10.30;99.90
27848;DHT22;15212;48.830;8.730;2023-02-18T00:44:08;10.30;99.90
27848;DHT22;15212;48.830;8.730;2023-02-18T00:46:38;10.40;99.90
27848;DHT22;15212;48.830;8.730;2023-02-18T00:49:07;10.30;99.90
27848;DHT22;15212;48.830;8.730;2023-02-18T00:51:36;10.30;99.90
27848;DHT22;15212;48.830;8.730;2023-02-18T00:54:04;10.30;99.90
27848;DHT22;15212;48.830;8.730;2023-02-18T00:56:33;10.30;99.90
27848;DHT22;15212;48.830;8.730;2023-02-18T00:59:01;10.40;99.90
27848;DHT22;15212;48.830;8.730;2023-02-18T01:01:30;10.30;99.90
27848;DHT22;15212;48.830;8.730;2023-02-18T01:03:58;10.30;99.90
27848;DHT22;15212;48.830;8.730;2023-02-18T01:06:27;10.30;99.90
27848;DHT22;15212;48.830;8.730;2023-02-18T01:08:55;10.30;99.90
27848;DHT22;15212;48.830;8.730;2023-02-18T01:11:24;10.40;99.90
27848;DHT22;15212;48.830;8.730;2023-02-18T01:13:53;10.40;99.90
27848;DHT22;15212;48.830;8.730;2023-02-18T01:16:21;10.40;99.90
27848;DHT22;15212;48.830;8.730;2023-02-18T01:18:50;10.40;99.90
27848;DHT22;15212;48.830;8.730;2023-02-18T01:21:18;10.30;99.90
27848;DHT22;15212;48.830;8.730;2023-02-18T01:23:47;10.30;99.90
27848;DHT22;15212;48.830;8.730;2023-02-18T01:26:15;10.30;99.90
27848;DHT22;15212;48.830;8.730;2023-02-18T01:28:44;10.40;99.90
27848;DHT22;15212;48.830;8.730;2023-02-18T01:31:13;10.40;99.90
27848;DHT22;15212;48.830;8.730;2023-02-18T01:33:42;10.40;99.90
27848;DHT22;15212;48.830;8.730;2023-02-18T01:36:11;10.40;99.90
27848;DHT22;15212;48.830;8.730;2023-02-18T01:38:39;10.30;99.90
27848;DHT22;15212;48.830;8.730;2023-02-18T01:41:08;10.30;99.90
27848;DHT22;15212;48.830;8.730;2023-02-18T01:43:38;10.40;99.90
27848;DHT22;15212;48.830;8.730;2023-02-18T01:46:15;10.30;99.90
27848;DHT22;15212;48.830;8.730;2023-02-18T01:48:57;10.30;99.90
27848;DHT22;15212;48.830;8.730;2023-02-18T01:51:35;10.30;99.90
27848;DHT22;15212;48.830;8.730;2023-02-18T01:54:12;10.30;99.90
27848;DHT22;15212;48.830;8.730;2023-02-18T01:57:03;10.30;99.90
27848;DHT22;15212;48.830;8.730;2023-02-18T01:59:39;10.30;99.90
27848;DHT22;15212;48.830;8.730;2023-02-18T02:02:17;10.30;99.90
27848;DHT22;15212;48.830;8.730;2023-02-18T02:04:47;10.30;99.90
27848;DHT22;15212;48.830;8.730;2023-02-18T02:07:18;10.20;99.90
27848;DHT22;15212;48.830;8.730;2023-02-18T02:09:50;10.20;99.90
27848;DHT22;15212;48.830;8.730;2023-02-18T02:12:48;10.20;99.90
27848;DHT22;15212;48.830;8.730;2023-02-18T02:15:44;10.30;99.90
27848;DHT22;15212;48.830;8.730;2023-02-18T02:18:37;10.30;99.90
27848;DHT22;15212;48.830;8.730;2023-02-18T02:27:22;10.30;99.90
27848;DHT22;15212;48.830;8.730;2023-02-18T02:30:24;10.30;99.90
27848;DHT22;15212;48.830;8.730;2023-02-18T02:33:18;10.40;99.90
27848;DHT22;15212;48.830;8.730;2023-02-18T02:35:56;10.40;99.90
27848;DHT22;15212;48.830;8.730;2023-02-18T02:44:17;10.40;99.90
27848;DHT22;15212;48.830;8.730;2023-02-18T02:46:51;10.40;99.90
27848;DHT22;15212;48.830;8.730;2023-02-18T02:52:29;10.40;99.90
27848;DHT22;15212;48.830;8.730;2023-02-18T02:55:03;10.50;99.90
27848;DHT22;15212;48.830;8.730;2023-02-18T02:57:45;10.50;99.90
27848;DHT22;15212;48.830;8.730;2023-02-18T03:00:17;10.50;99.90
27848;DHT22;15212;48.830;8.730;2023-02-18T03:03:13;10.40;99.90
27848;DHT22;15212;48.830;8.730;2023-02-18T03:06:15;10.40;99.90
27848;DHT22;15212;48.830;8.730;2023-02-18T03:11:31;10.40;99.90
27848;DHT22;15212;48.830;8.730;2023-02-18T03:14:10;10.40;99.90
27848;DHT22;15212;48.830;8.730;2023-02-18T03:16:58;10.40;99.90
27848;DHT22;15212;48.830;8.730;2023-02-18T03:19:37;10.40;99.90
27848;DHT22;15212;48.830;8.730;2023-02-18T03:22:16;10.40;99.90
27848;DHT22;15212;48.830;8.730;2023-02-18T03:24:50;10.40;99.90
27848;DHT22;15212;48.830;8.730;2023-02-18T03:27:29;10.40;99.90
27848;DHT22;15212;48.830;8.730;2023-02-18T03:30:10;10.30;99.90
27848;DHT22;15212;48.830;8.730;2023-02-18T03:32:52;10.40;99.90
27848;DHT22;15212;48.830;8.730;2023-02-18T03:35:23;10.40;99.90
27848;DHT22;15212;48.830;8.730;2023-02-18T03:38:11;10.40;99.90
27848;DHT22;15212;48.830;8.730;2023-02-18T03:40:42;10.40;99.90
27848;DHT22;15212;48.830;8.730;2023-02-18T03:43:11;10.40;99.90
27848;DHT22;15212;48.830;8.730;2023-02-18T03:45:39;10.40;99.90
27848;DHT22;15212;48.830;8.730;2023-02-18T03:48:08;10.40;99.90
27848;DHT22;15212;48.830;8.730;2023-02-18T03:50:36;10.40;99.90
27848;DHT22;15212;48.830;8.730;2023-02-18T03:53:05;10.40;99.90
27848;DHT22;15212;48.830;8.730;2023-02-18T03:55:33;10.40;99.90
27848;DHT22;15212;48.830;8.730;2023-02-18T03:58:01;10.40;99.90
27848;DHT22;15212;48.830;8.730;2023-02-18T04:00:30;10.50;99.90
27848;DHT22;15212;48.830;8.730;2023-02-18T04:02:58;10.40;99.90
27848;DHT22;15212;48.830;8.730;2023-02-18T04:05:26;10.50;99.90
27848;DHT22;15212;48.830;8.730;2023-02-18T04:07:55;10.50;99.90
27848;DHT22;15212;48.830;8.730;2023-02-18T04:10:23;10.50;99.90
27848;DHT22;15212;48.830;8.730;2023-02-18T04:12:52;10.50;99.90
27848;DHT22;15212;48.830;8.730;2023-02-18T04:15:20;10.50;99.90
27848;DHT22;15212;48.830;8.730;2023-02-18T04:17:48;10.50;99.90
27848;DHT22;15212;48.830;8.730;2023-02-18T04:20:17;10.50;99.90
27848;DHT22;15212;48.830;8.730;2023-02-18T04:22:46;10.50;99.90
27848;DHT22;15212;48.830;8.730;2023-02-18T04:25:14;10.60;99.90
27848;DHT22;15212;48.830;8.730;2023-02-18T04:27:43;10.60;99.90
27848;DHT22;15212;48.830;8.730;2023-02-18T04:30:12;10.60;99.90
27848;DHT22;15212;48.830;8.730;2023-02-18T04:32:40;10.60;99.90
27848;DHT22;15212;48.830;8.730;2023-02-18T04:35:09;10.60;99.90
27848;DHT22;15212;48.830;8.730;2023-02-18T04:37:37;10.50;99.90
27848;DHT22;15212;48.830;8.730;2023-02-18T04:40:06;10.50;99.90
27848;DHT22;15212;48.830;8.730;2023-02-18T04:42:35;10.50;99.90
27848;DHT22;15212;48.830;8.730;2023-02-18T04:45:04;10.50;99.90
27848;DHT22;15212;48.830;8.730;2023-02-18T04:47:32;10.50;99.90
27848;DHT22;15212;48.830;8.730;2023-02-18T04:50:01;10.50;99.90
27848;DHT22;15212;48.830;8.730;2023-02-18T04:52:29;10.50;99.90
27848;DHT22;15212;48.830;8.730;2023-02-18T04:54:58;10.50;99.90
27848;DHT22;15212;48.830;8.730;2023-02-18T04:57:26;10.60;99.90
27848;DHT22;15212;48.830;8.730;2023-02-18T04:59:54;10.60;99.90
27848;DHT22;15212;48.830;8.730;2023-02-18T05:02:23;10.50;99.90
27848;DHT22;15212;48.830;8.730;2023-02-18T05:04:51;10.60;99.90
27848;DHT22;15212;48.830;8.730;2023-02-18T05:07:19;10.60;99.90
27848;DHT22;15212;48.830;8.730;2023-02-18T05:09:48;10.60;99.90
27848;DHT22;15212;48.830;8.730;2023-02-18T05:12:16;10.60;99.90
27848;DHT22;15212;48.830;8.730;2023-02-18T05:14:45;10.70;99.90
27848;DHT22;15212;48.830;8.730;2023-02-18T05:17:13;10.60;99.90
27848;DHT22;15212;48.830;8.730;2023-02-18T05:19:42;10.70;99.90
27848;DHT22;15212;48.830;8.730;2023-02-18T05:22:10;10.70;99.90
27848;DHT22;15212;48.830;8.730;2023-02-18T05:24:38;10.70;99.90
27848;DHT22;15212;48.830;8.730;2023-02-18T05:27:07;10.70;99.90
27848;DHT22;15212;48.830;8.730;2023-02-18T05:29:35;10.70;99.90
27848;DHT22;15212;48.830;8.730;2023-02-18T05:32:04;10.60;99.90
27848;DHT22;15212;48.830;8.730;2023-02-18T05:34:32;10.70;99.90
27848;DHT22;15212;48.830;8.730;2023-02-18T05:37:00;10.60;99.90
27848;DHT22;15212;48.830;8.730;2023-02-18T05:39:29;10.70;99.90
27848;DHT22;15212;48.830;8.730;2023-02-18T05:41:57;10.60;99.90
27848;DHT22;15212;48.830;8.730;2023-02-18T05:44:26;10.70;99.90
27848;DHT22;15212;48.830;8.730;2023-02-18T05:47:04;10.70;99.90
27848;DHT22;15212;48.830;8.730;2023-02-18T05:49:30;10.70;99.90
27848;DHT22;15212;48.830;8.730;2023-02-18T05:52:00;10.70;99.90
27848;DHT22;15212;48.830;8.730;2023-02-18T05:54:29;10.70;99.90
27848;DHT22;15212;48.830;8.730;2023-02-18T05:56:57;10.70;99.90
27848;DHT22;15212;48.830;8.730;2023-02-18T05:59:26;10.70;99.90
27848;DHT22;15212;48.830;8.730;2023-02-18T06:01:55;10.70;99.90
27848;DHT22;15212;48.830;8.730;2023-02-18T06:04:23;10.70;99.90
27848;DHT22;15212;48.830;8.730;2023-02-18T06:06:52;10.70;99.90
27848;DHT22;15212;48.830;8.730;2023-02-18T06:09:20;10.70;99.90
27848;DHT22;15212;48.830;8.730;2023-02-18T06:11:48;10.70;99.90
27848;DHT22;15212;48.830;8.730;2023-02-18T06:14:17;10.70;99.90
27848;DHT22;15212;48.830;8.730;2023-02-18T06:16:45;10.70;99.90
27848;DHT22;15212;48.830;8.730;2023-02-18T06:19:14;10.70;99.90
27848;DHT22;15212;48.830;8.730;2023-02-18T06:21:42;10.70;99.90
27848;DHT22;15212;48.830;8.730;2023-02-18T06:24:11;10.80;99.90
27848;DHT22;15212;48.830;8.730;2023-02-18T06:26:39;10.70;99.90
27848;DHT22;15212;48.830;8.730;2023-02-18T06:29:07;10.70;99.90
27848;DHT22;15212;48.830;8.730;2023-02-18T06:31:36;10.80;99.90
27848;DHT22;15212;48.830;8.730;2023-02-18T06:34:04;10.80;99.90
27848;DHT22;15212;48.830;8.730;2023-02-18T06:36:33;10.70;99.90
27848;DHT22;15212;48.830;8.730;2023-02-18T06:39:03;10.70;99.90
27848;DHT22;15212;48.830;8.730;2023-02-18T06:41:32;10.70;99.90
27848;DHT22;15212;48.830;8.730;2023-02-18T06:44:01;10.70;99.90
27848;DHT22;15212;48.830;8.730;2023-02-18T06:46:29;10.80;99.90
27848;DHT22;15212;48.830;8.730;2023-02-18T06:48:58;10.80;99.90
27848;DHT22;15212;48.830;8.730;2023-02-18T06:51:26;10.80;99.90
27848;DHT22;15212;48.830;8.730;2023-02-18T06:53:55;10.80;99.90
27848;DHT22;15212;48.830;8.730;2023-02-18T06:56:23;10.80;99.90
27848;DHT22;15212;48.830;8.730;2023-02-18T06:58:52;10.80;99.90
27848;DHT22;15212;48.830;8.730;2023-02-18T07:01:20;10.80;99.90
27848;DHT22;15212;48.830;8.730;2023-02-18T07:03:48;10.80;99.90
27848;DHT22;15212;48.830;8.730;2023-02-18T07:06:17;10.80;99.90
27848;DHT22;15212;48.830;8.730;2023-02-18T07:08:45;10.80;99.90
27848;DHT22;15212;48.830;8.730;2023-02-18T07:11:13;10.80;99.90
27848;DHT22;15212;48.830;8.730;2023-02-18T07:13:42;10.80;99.90
27848;DHT22;15212;48.830;8.730;2023-02-18T07:16:10;10.80;99.90
27848;DHT22;15212;48.830;8.730;2023-02-18T07:18:38;10.80;99.90
27848;DHT22;15212;48.830;8.730;2023-02-18T07:21:08;10.80;99.90
27848;DHT22;15212;48.830;8.730;2023-02-18T07:23:36;10.80;99.90
27848;DHT22;15212;48.830;8.730;2023-02-18T07:26:10;10.90;99.90
27848;DHT22;15212;48.830;8.730;2023-02-18T07:28:40;10.90;99.90
27848;DHT22;15212;48.830;8.730;2023-02-18T07:31:08;10.90;99.90
27848;DHT22;15212;48.830;8.730;2023-02-18T07:33:37;10.90;99.90
27848;DHT22;15212;48.830;8.730;2023-02-18T07:36:06;10.90;99.90
27848;DHT22;15212;48.830;8.730;2023-02-18T07:38:54;10.90;99.90
27848;DHT22;15212;48.830;8.730;2023-02-18T07:41:23;11.00;99.90
27848;DHT22;15212;48.830;8.730;2023-02-18T07:43:51;11.00;99.90
27848;DHT22;15212;48.830;8.730;2023-02-18T07:46:19;11.00;99.90
27848;DHT22;15212;48.830;8.730;2023-02-18T07:48:48;11.00;99.90
27848;DHT22;15212;48.830;8.730;2023-02-18T07:51:16;11.10;99.90
27848;DHT22;15212;48.830;8.730;2023-02-18T07:53:45;11.10;99.90
27848;DHT22;15212;48.830;8.730;2023-02-18T07:56:13;11.10;99.90
27848;DHT22;15212;48.830;8.730;2023-02-18T07:58:41;11.10;99.90
27848;DHT22;15212;48.830;8.730;2023-02-18T08:01:12;11.10;99.90
27848;DHT22;15212;48.830;8.730;2023-02-18T08:03:41;11.10;99.90
27848;DHT22;15212;48.830;8.730;2023-02-18T08:06:21;11.10;99.90
27848;DHT22;15212;48.830;8.730;2023-02-18T08:09:01;11.10;99.90
27848;DHT22;15212;48.830;8.730;2023-02-18T08:11:30;11.10;99.90
27848;DHT22;15212;48.830;8.730;2023-02-18T08:13:59;11.10;99.90
27848;DHT22;15212;48.830;8.730;2023-02-18T08:16:28;11.10;99.90
27848;DHT22;15212;48.830;8.730;2023-02-18T08:18:56;11.10;99.90
27848;DHT22;15212;48.830;8.730;2023-02-18T08:21:25;11.10;99.90
27848;DHT22;15212;48.830;8.730;2023-02-18T08:23:54;11.10;99.90
27848;DHT22;15212;48.830;8.730;2023-02-18T08:26:23;11.10;99.90
27848;DHT22;15212;48.830;8.730;2023-02-18T08:28:52;11.10;99.90
27848;DHT22;15212;48.830;8.730;2023-02-18T08:31:23;11.20;99.90
27848;DHT22;15212;48.830;8.730;2023-02-18T08:33:54;11.20;99.90
27848;DHT22;15212;48.830;8.730;2023-02-18T08:36:24;11.20;99.90
27848;DHT22;15212;48.830;8.730;2023-02-18T08:38:53;11.20;99.90
27848;DHT22;15212;48.830;8.730;2023-02-18T08:41:22;11.20;99.90
27848;DHT22;15212;48.830;8.730;2023-02-18T08:43:51;11.20;99.90
27848;DHT22;15212;48.830;8.730;2023-02-18T08:46:19;11.20;99.90
27848;DHT22;15212;48.830;8.730;2023-02-18T08:48:48;11.20;99.90
27848;DHT22;15212;48.830;8.730;2023-02-18T08:51:21;11.20;99.90
27848;DHT22;15212;48.830;8.730;2023-02-18T08:53:51;11.20;99.90
27848;DHT22;15212;48.830;8.730;2023-02-18T08:56:19;11.20;99.90
27848;DHT22;15212;48.830;8.730;2023-02-18T08:58:48;11.30;99.90
27848;DHT22;15212;48.830;8.730;2023-02-18T09:01:16;11.30;99.90
27848;DHT22;15212;48.830;8.730;2023-02-18T09:03:46;11.40;99.90
27848;DHT22;15212;48.830;8.730;2023-02-18T09:06:15;11.50;99.90
27848;DHT22;15212;48.830;8.730;2023-02-18T09:08:43;11.50;99.90
27848;DHT22;15212;48.830;8.730;2023-02-18T09:11:11;11.60;99.90
27848;DHT22;15212;48.830;8.730;2023-02-18T09:13:40;11.60;99.90
27848;DHT22;15212;48.830;8.730;2023-02-18T09:16:14;11.70;99.90
27848;DHT22;15212;48.830;8.730;2023-02-18T09:18:45;11.70;99.90
27848;DHT22;15212;48.830;8.730;2023-02-18T09:21:15;11.70;99.90
27848;DHT22;15212;48.830;8.730;2023-02-18T09:23:46;11.70;99.90
27848;DHT22;15212;48.830;8.730;2023-02-18T09:26:16;11.80;99.90
27848;DHT22;15212;48.830;8.730;2023-02-18T09:28:47;11.90;99.90
27848;DHT22;15212;48.830;8.730;2023-02-18T09:31:20;11.90;99.90
27848;DHT22;15212;48.830;8.730;2023-02-18T09:33:52;11.90;99.90
27848;DHT22;15212;48.830;8.730;2023-02-18T09:36:22;11.80;99.90
27848;DHT22;15212;48.830;8.730;2023-02-18T09:38:50;11.80;99.90
27848;DHT22;15212;48.830;8.730;2023-02-18T09:41:41;11.80;99.90
27848;DHT22;15212;48.830;8.730;2023-02-18T09:47:17;11.70;99.90
27848;DHT22;15212;48.830;8.730;2023-02-18T09:49:56;11.70;99.90
27848;DHT22;15212;48.830;8.730;2023-02-18T09:52:31;11.70;99.90
27848;DHT22;15212;48.830;8.730;2023-02-18T09:58:01;11.80;99.90
27848;DHT22;15212;48.830;8.730;2023-02-18T10:00:42;11.80;99.90
27848;DHT22;15212;48.830;8.730;2023-02-18T10:03:16;11.80;99.90
27848;DHT22;15212;48.830;8.730;2023-02-18T10:05:59;11.80;99.90
27848;DHT22;15212;48.830;8.730;2023-02-18T10:08:48;11.70;99.90
27848;DHT22;15212;48.830;8.730;2023-02-18T10:13:59;11.70;99.90
27848;DHT22;15212;48.830;8.730;2023-02-18T10:16:29;11.70;99.90
27848;DHT22;15212;48.830;8.730;2023-02-18T10:19:00;11.80;99.90
27848;DHT22;15212;48.830;8.730;2023-02-18T10:21:34;11.80;99.90
27848;DHT22;15212;48.830;8.730;2023-02-18T10:24:06;11.90;99.90
27848;DHT22;15212;48.830;8.730;2023-02-18T10:26:37;11.90;99.90
27848;DHT22;15212;48.830;8.730;2023-02-18T10:29:17;12.00;99.90
27848;DHT22;15212;48.830;8.730;2023-02-18T10:31:58;12.00;99.90
27848;DHT22;15212;48.830;8.730;2023-02-18T10:34:46;12.10;99.90
27848;DHT22;15212;48.830;8.730;2023-02-18T10:37:42;12.10;99.90
27848;DHT22;15212;48.830;8.730;2023-02-18T10:45:48;12.00;99.90
27848;DHT22;15212;48.830;8.730;2023-02-18T10:48:32;11.90;99.90
27848;DHT22;15212;48.830;8.730;2023-02-18T10:51:03;11.90;99.90
27848;DHT22;15212;48.830;8.730;2023-02-18T10:53:38;11.90;99.90
27848;DHT22;15212;48.830;8.730;2023-02-18T10:56:07;11.90;99.90
27848;DHT22;15212;48.830;8.730;2023-02-18T10:58:47;12.00;99.90
27848;DHT22;15212;48.830;8.730;2023-02-18T11:01:19;12.00;99.90
27848;DHT22;15212;48.830;8.730;2023-02-18T11:04:03;12.00;99.90
27848;DHT22;15212;48.830;8.730;2023-02-18T11:06:38;12.00;99.90
27848;DHT22;15212;48.830;8.730;2023-02-18T11:09:03;12.00;99.90
27848;DHT22;15212;48.830;8.730;2023-02-18T11:11:36;12.00;99.90
27848;DHT22;15212;48.830;8.730;2023-02-18T11:14:16;12.00;99.90
27848;DHT22;15212;48.830;8.730;2023-02-18T11:16:42;12.10;99.90
27848;DHT22;15212;48.830;8.730;2023-02-18T11:24:52;12.10;99.90
27848;DHT22;15212;48.830;8.730;2023-02-18T11:27:30;12.10;99.90
27848;DHT22;15212;48.830;8.730;2023-02-18T11:30:24;12.10;99.90
27848;DHT22;15212;48.830;8.730;2023-02-18T11:33:09;12.10;99.90
27848;DHT22;15212;48.830;8.730;2023-02-18T11:35:50;12.20;99.90
27848;DHT22;15212;48.830;8.730;2023-02-18T11:38:36;12.20;99.90
27848;DHT22;15212;48.830;8.730;2023-02-18T11:41:12;12.20;99.90
27848;DHT22;15212;48.830;8.730;2023-02-18T11:43:47;12.20;99.90
27848;DHT22;15212;48.830;8.730;2023-02-18T11:46:20;12.20;99.90
27848;DHT22;15212;48.830;8.730;2023-02-18T11:48:50;12.20;99.90
27848;DHT22;15212;48.830;8.730;2023-02-18T11:51:27;12.10;99.90
27848;DHT22;15212;48.830;8.730;2023-02-18T11:54:28;12.10;99.90
27848;DHT22;15212;48.830;8.730;2023-02-18T11:57:09;12.10;99.90
27848;DHT22;15212;48.830;8.730;2023-02-18T11:59:39;12.10;99.90
27848;DHT22;15212;48.830;8.730;2023-02-18T12:02:21;12.00;99.90
27848;DHT22;15212;48.830;8.730;2023-02-18T12:05:08;12.00;99.90
27848;DHT22;15212;48.830;8.730;2023-02-18T12:10:39;12.00;99.90
27848;DHT22;15212;48.830;8.730;2023-02-18T12:16:42;12.00;99.90
27848;DHT22;15212;48.830;8.730;2023-02-18T12:22:15;12.00;99.90
27848;DHT22;15212;48.830;8.730;2023-02-18T12:25:02;12.00;99.90
27848;DHT22;15212;48.830;8.730;2023-02-18T12:31:13;12.10;99.90
27848;DHT22;15212;48.830;8.730;2023-02-18T12:34:22;12.10;99.90
27848;DHT22;15212;48.830;8.730;2023-02-18T12:37:29;12.10;99.90
27848;DHT22;15212;48.830;8.730;2023-02-18T12:40:38;12.10;99.90
27848;DHT22;15212;48.830;8.730;2023-02-18T12:43:06;12.10;99.90
27848;DHT22;15212;48.830;8.730;2023-02-18T12:45:50;12.00;99.90
27848;DHT22;15212;48.830;8.730;2023-02-18T12:49:00;12.00;99.90
27848;DHT22;15212;48.830;8.730;2023-02-18T12:54:36;12.10;99.90
27848;DHT22;15212;48.830;8.730;2023-02-18T13:15:16;12.20;99.90
27848;DHT22;15212;48.830;8.730;2023-02-18T13:17:43;12.20;99.90
27848;DHT22;15212;48.830;8.730;2023-02-18T13:20:23;12.20;99.90
27848;DHT22;15212;48.830;8.730;2023-02-18T13:23:23;12.30;99.90
27848;DHT22;15212;48.830;8.730;2023-02-18T13:26:01;12.20;99.90
27848;DHT22;15212;48.830;8.730;2023-02-18T13:34:26;12.40;99.90
27848;DHT22;15212;48.830;8.730;2023-02-18T13:37:09;12.40;99.90
27848;DHT22;15212;48.830;8.730;2023-02-18T13:39:56;12.30;99.90
27848;DHT22;15212;48.830;8.730;2023-02-18T13:42:33;12.40;99.90
27848;DHT22;15212;48.830;8.730;2023-02-18T13:45:05;12.40;99.90
27848;DHT22;15212;48.830;8.730;2023-02-18T13:50:26;12.40;99.90
27848;DHT22;15212;48.830;8.730;2023-02-18T13:58:41;12.40;99.90
27848;DHT22;15212;48.830;8.730;2023-02-18T14:01:18;12.30;99.90
27848;DHT22;15212;48.830;8.730;2023-02-18T14:03:56;12.20;99.90
27848;DHT22;15212;48.830;8.730;2023-02-18T14:06:34;12.10;99.90
27848;DHT22;15212;48.830;8.730;2023-02-18T14:11:47;11.90;99.90
27848;DHT22;15212;48.830;8.730;2023-02-18T14:22:36;12.20;99.90
27848;DHT22;15212;48.830;8.730;2023-02-18T14:28:02;12.20;99.90
27848;DHT22;15212;48.830;8.730;2023-02-18T14:30:41;12.10;99.90
27848;DHT22;15212;48.830;8.730;2023-02-18T14:33:12;11.90;99.90
27848;DHT22;15212;48.830;8.730;2023-02-18T14:38:55;11.80;99.90
27848;DHT22;15212;48.830;8.730;2023-02-18T14:41:34;11.60;99.90
27848;DHT22;15212;48.830;8.730;2023-02-18T14:50:38;11.40;99.90
27848;DHT22;15212;48.830;8.730;2023-02-18T14:53:13;11.40;99.90
27848;DHT22;15212;48.830;8.730;2023-02-18T14:55:49;11.40;99.90
27848;DHT22;15212;48.830;8.730;2023-02-18T14:58:41;11.30;99.90
27848;DHT22;15212;48.830;8.730;2023-02-18T15:01:19;11.20;99.90
27848;DHT22;15212;48.830;8.730;2023-02-18T15:03:51;11.20;99.90
27848;DHT22;15212;48.830;8.730;2023-02-18T15:06:28;11.10;99.90
27848;DHT22;15212;48.830;8.730;2023-02-18T15:08:56;11.20;99.90
27848;DHT22;15212;48.830;8.730;2023-02-18T15:11:35;11.20;99.90
27848;DHT22;15212;48.830;8.730;2023-02-18T15:14:09;11.20;99.90
27848;DHT22;15212;48.830;8.730;2023-02-18T15:16:39;11.10;99.90
27848;DHT22;15212;48.830;8.730;2023-02-18T15:19:13;11.10;99.90
27848;DHT22;15212;48.830;8.730;2023-02-18T15:21:49;11.10;99.90
27848;DHT22;15212;48.830;8.730;2023-02-18T15:26:55;11.10;99.90
27848;DHT22;15212;48.830;8.730;2023-02-18T15:29:27;11.10;99.90
27848;DHT22;15212;48.830;8.730;2023-02-18T15:32:00;11.10;99.90
27848;DHT22;15212;48.830;8.730;2023-02-18T15:34:49;11.20;99.90
27848;DHT22;15212;48.830;8.730;2023-02-18T15:37:19;11.20;99.90
27848;DHT22;15212;48.830;8.730;2023-02-18T15:39:48;11.20;99.90
27848;DHT22;15212;48.830;8.730;2023-02-18T15:42:35;11.20;99.90
27848;DHT22;15212;48.830;8.730;2023-02-18T15:45:14;11.20;99.90
27848;DHT22;15212;48.830;8.730;2023-02-18T15:47:50;11.10;99.90
27848;DHT22;15212;48.830;8.730;2023-02-18T15:50:32;11.10;99.90
27848;DHT22;15212;48.830;8.730;2023-02-18T15:53:08;11.10;99.90
27848;DHT22;15212;48.830;8.730;2023-02-18T15:55:39;11.00;99.90
27848;DHT22;15212;48.830;8.730;2023-02-18T15:58:32;11.00;99.90
27848;DHT22;15212;48.830;8.730;2023-02-18T16:00:53;10.90;99.90
27848;DHT22;15212;48.830;8.730;2023-02-18T16:03:31;10.90;99.90
27848;DHT22;15212;48.830;8.730;2023-02-18T16:06:29;10.80;99.90
27848;DHT22;15212;48.830;8.730;2023-02-18T16:09:22;10.80;99.90
27848;DHT22;15212;48.830;8.730;2023-02-18T16:12:00;10.80;99.90
27848;DHT22;15212;48.830;8.730;2023-02-18T16:14:41;10.70;99.90
27848;DHT22;15212;48.830;8.730;2023-02-18T16:17:21;10.70;99.90
27848;DHT22;15212;48.830;8.730;2023-02-18T16:20:00;10.60;99.90
27848;DHT22;15212;48.830;8.730;2023-02-18T16:22:33;10.70;99.90
27848;DHT22;15212;48.830;8.730;2023-02-18T16:25:15;10.60;99.90
27848;DHT22;15212;48.830;8.730;2023-02-18T16:30:32;10.60;99.90
27848;DHT22;15212;48.830;8.730;2023-02-18T16:33:01;10.50;99.90
27848;DHT22;15212;48.830;8.730;2023-02-18T16:35:30;10.50;99.90
27848;DHT22;15212;48.830;8.730;2023-02-18T16:37:59;10.50;99.90
27848;DHT22;15212;48.830;8.730;2023-02-18T16:40:33;10.40;99.90
27848;DHT22;15212;48.830;8.730;2023-02-18T16:43:09;10.40;99.90
27848;DHT22;15212;48.830;8.730;2023-02-18T16:45:47;10.30;99.90
27848;DHT22;15212;48.830;8.730;2023-02-18T16:48:29;10.30;99.90
27848;DHT22;15212;48.830;8.730;2023-02-18T16:51:00;10.30;99.90
27848;DHT22;15212;48.830;8.730;2023-02-18T16:53:30;10.20;99.90
27848;DHT22;15212;48.830;8.730;2023-02-18T16:55:58;10.20;99.90
27848;DHT22;15212;48.830;8.730;2023-02-18T16:58:28;10.20;99.90
27848;DHT22;15212;48.830;8.730;2023-02-18T17:00:57;10.20;99.90
27848;DHT22;15212;48.830;8.730;2023-02-18T17:03:25;10.10;99.90
27848;DHT22;15212;48.830;8.730;2023-02-18T17:05:53;10.10;99.90
27848;DHT22;15212;48.830;8.730;2023-02-18T17:08:24;10.00;99.90
27848;DHT22;15212;48.830;8.730;2023-02-18T17:10:56;10.00;99.90
27848;DHT22;15212;48.830;8.730;2023-02-18T17:13:28;10.00;99.90
27848;DHT22;15212;48.830;8.730;2023-02-18T17:15:58;10.00;99.90
27848;DHT22;15212;48.830;8.730;2023-02-18T17:18:26;10.00;99.90
27848;DHT22;15212;48.830;8.730;2023-02-18T17:20:55;10.00;99.90
27848;DHT22;15212;48.830;8.730;2023-02-18T17:23:23;10.00;99.90
27848;DHT22;15212;48.830;8.730;2023-02-18T17:25:52;10.00;99.90
27848;DHT22;15212;48.830;8.730;2023-02-18T17:28:20;10.00;99.90
27848;DHT22;15212;48.830;8.730;2023-02-18T17:30:54;9.90;99.90
27848;DHT22;15212;48.830;8.730;2023-02-18T17:33:24;10.00;99.90
27848;DHT22;15212;48.830;8.730;2023-02-18T17:35:52;10.00;99.90
27848;DHT22;15212;48.830;8.730;2023-02-18T17:38:21;10.00;99.90
27848;DHT22;15212;48.830;8.730;2023-02-18T17:40:49;10.00;99.90
27848;DHT22;15212;48.830;8.730;2023-02-18T17:43:17;10.00;99.90
27848;DHT22;15212;48.830;8.730;2023-02-18T17:45:52;10.00;99.90
27848;DHT22;15212;48.830;8.730;2023-02-18T17:48:24;10.00;99.90
27848;DHT22;15212;48.830;8.730;2023-02-18T17:50:54;9.90;99.90
27848;DHT22;15212;48.830;8.730;2023-02-18T17:53:23;10.00;99.90
27848;DHT22;15212;48.830;8.730;2023-02-18T17:55:51;9.90;99.90
27848;DHT22;15212;48.830;8.730;2023-02-18T17:58:20;9.90;99.90
27848;DHT22;15212;48.830;8.730;2023-02-18T18:00:56;9.90;99.90
27848;DHT22;15212;48.830;8.730;2023-02-18T18:03:21;9.80;99.90